Ana Sayfa
METAR-TAF:

METAR-TAF

Havaalanları :

Childress, Teksas, Amerika Birleşik Devletleri

Enlem: 34-25-39N, Boylam: 100-17-00W, yükseklik: 595 m

Güncel hava durumu gözlemi

Rapor saat 15:53 UTC de 11 dakika önce yapıldı.
Rüzgar güneybatıdan 10 kt ve 21 kt'a kadar ani rüzgarlar
Sıcaklık 33°C
Nem 46%
Basınç 1013 hPa
Görüş mesafesi: 16.1 km
Açık gökyüzü

METAR: KCDS 251553Z AUTO 23010G21KT 10SM CLR 33/20 A2991 RMK AO2 SLP095 T03280200

Saat: 11:04 (16:04 UTC)

Tahmin

Rapor saat 11:20 UTC de 4 saat ve 44 dakika önce yapıldı.
Ayın 25'si saat 12 UTC'den ayın 26'si saat 12 UTC'ye kadar geçerli Tahmin
Rüzgar güneydan 15 kt
Görüş mesafesi: 10 km
25000 ft yükseklikte az bulutlu
Ayın 26'si saat 0100 UTC'den
Rüzgar güney/güneydoğudan 11 kt
Görüş mesafesi: 10 km
25000 ft yükseklikte parçalı çok bulutlu

TAF: KCDS 251120Z 2512/2612 19015KT P6SM FEW250 FM260100 15011KT P6SM BKN250

4.000'den fazla havaalanı için hava durumu gözlemleri ve tahminleri (METAR ve TAF raporları).

Kullanılabilir istasyonlar harita üzerinde sarı ve kırmızı noktalarla gösterilir.

İstasyonun adını görmek için fareyi noktanın üzerinde gezdirin.

Sonrasında hava gözlem ve tahminlerini görmek için tıklayın.

Haritayı değiştirmek için: yaklaştırmak için siyah artı işaretli yeşil düğmeye ve uzaklaştırmak için de eksi işaretli düğmeye hızla tıklayın; bitişik haritalar için yeşil okları kullanın.


METAR-TAF: